sensor_id;sensor_type;location;lat;lon;timestamp;P1;durP1;ratioP1;P2;durP2;ratioP2
17145;SDS011;8688;54.444;18.444;2023-03-25T00:01:51;13.03;;;5.27;;
17145;SDS011;8688;54.444;18.444;2023-03-25T00:04:19;13.13;;;5.37;;
17145;SDS011;8688;54.444;18.444;2023-03-25T00:06:46;15.73;;;5.67;;
17145;SDS011;8688;54.444;18.444;2023-03-25T00:09:14;18.73;;;6.57;;
17145;SDS011;8688;54.444;18.444;2023-03-25T00:11:41;13.17;;;5.33;;
17145;SDS011;8688;54.444;18.444;2023-03-25T00:14:09;14.53;;;5.50;;
17145;SDS011;8688;54.444;18.444;2023-03-25T00:16:42;15.27;;;5.53;;
17145;SDS011;8688;54.444;18.444;2023-03-25T00:19:12;10.00;;;4.83;;
17145;SDS011;8688;54.444;18.444;2023-03-25T00:21:40;11.17;;;4.87;;
17145;SDS011;8688;54.444;18.444;2023-03-25T00:24:08;14.63;;;4.97;;
17145;SDS011;8688;54.444;18.444;2023-03-25T00:26:36;14.73;;;5.03;;
17145;SDS011;8688;54.444;18.444;2023-03-25T00:29:07;14.73;;;4.73;;
17145;SDS011;8688;54.444;18.444;2023-03-25T00:31:34;11.90;;;4.53;;
17145;SDS011;8688;54.444;18.444;2023-03-25T00:34:03;11.97;;;5.17;;
17145;SDS011;8688;54.444;18.444;2023-03-25T00:36:31;12.20;;;5.23;;
17145;SDS011;8688;54.444;18.444;2023-03-25T00:39:02;11.27;;;4.77;;
17145;SDS011;8688;54.444;18.444;2023-03-25T00:41:30;12.10;;;5.10;;
17145;SDS011;8688;54.444;18.444;2023-03-25T00:44:00;11.17;;;4.60;;
17145;SDS011;8688;54.444;18.444;2023-03-25T00:46:28;10.37;;;4.60;;
17145;SDS011;8688;54.444;18.444;2023-03-25T00:48:57;10.50;;;4.37;;
17145;SDS011;8688;54.444;18.444;2023-03-25T00:51:27;16.97;;;5.20;;
17145;SDS011;8688;54.444;18.444;2023-03-25T00:53:57;12.67;;;5.17;;
17145;SDS011;8688;54.444;18.444;2023-03-25T00:56:26;14.80;;;5.80;;
17145;SDS011;8688;54.444;18.444;2023-03-25T00:58:54;14.40;;;5.57;;
17145;SDS011;8688;54.444;18.444;2023-03-25T01:01:22;12.77;;;6.30;;
17145;SDS011;8688;54.444;18.444;2023-03-25T01:03:52;17.27;;;6.40;;
17145;SDS011;8688;54.444;18.444;2023-03-25T01:06:24;11.33;;;5.73;;
17145;SDS011;8688;54.444;18.444;2023-03-25T01:08:55;9.47;;;5.63;;
17145;SDS011;8688;54.444;18.444;2023-03-25T01:11:23;13.07;;;6.67;;
17145;SDS011;8688;54.444;18.444;2023-03-25T01:13:53;15.33;;;6.97;;
17145;SDS011;8688;54.444;18.444;2023-03-25T01:16:21;11.30;;;6.83;;
17145;SDS011;8688;54.444;18.444;2023-03-25T01:18:48;12.07;;;6.80;;
17145;SDS011;8688;54.444;18.444;2023-03-25T01:21:16;15.77;;;6.80;;
17145;SDS011;8688;54.444;18.444;2023-03-25T01:23:45;12.17;;;6.50;;
17145;SDS011;8688;54.444;18.444;2023-03-25T01:26:12;19.10;;;7.27;;
17145;SDS011;8688;54.444;18.444;2023-03-25T01:28:40;17.10;;;6.87;;
17145;SDS011;8688;54.444;18.444;2023-03-25T01:31:09;9.37;;;6.50;;
17145;SDS011;8688;54.444;18.444;2023-03-25T01:33:38;13.67;;;7.03;;
17145;SDS011;8688;54.444;18.444;2023-03-25T01:36:06;13.30;;;7.00;;
17145;SDS011;8688;54.444;18.444;2023-03-25T01:38:37;13.93;;;6.97;;
17145;SDS011;8688;54.444;18.444;2023-03-25T01:41:07;10.67;;;6.77;;
17145;SDS011;8688;54.444;18.444;2023-03-25T01:43:35;11.87;;;7.17;;
17145;SDS011;8688;54.444;18.444;2023-03-25T01:46:03;10.37;;;6.33;;
17145;SDS011;8688;54.444;18.444;2023-03-25T01:48:31;11.00;;;6.30;;
17145;SDS011;8688;54.444;18.444;2023-03-25T01:51:02;10.87;;;6.17;;
17145;SDS011;8688;54.444;18.444;2023-03-25T01:53:35;8.10;;;5.70;;
17145;SDS011;8688;54.444;18.444;2023-03-25T01:56:03;9.60;;;5.87;;
17145;SDS011;8688;54.444;18.444;2023-03-25T01:58:36;10.13;;;5.30;;
17145;SDS011;8688;54.444;18.444;2023-03-25T02:01:04;9.67;;;5.93;;
17145;SDS011;8688;54.444;18.444;2023-03-25T02:03:35;8.97;;;5.57;;
17145;SDS011;8688;54.444;18.444;2023-03-25T02:06:06;10.33;;;5.53;;
17145;SDS011;8688;54.444;18.444;2023-03-25T02:08:37;11.30;;;6.03;;
17145;SDS011;8688;54.444;18.444;2023-03-25T02:11:07;11.60;;;6.00;;
17145;SDS011;8688;54.444;18.444;2023-03-25T02:13:36;8.77;;;5.30;;
17145;SDS011;8688;54.444;18.444;2023-03-25T02:16:16;10.67;;;5.87;;
17145;SDS011;8688;54.444;18.444;2023-03-25T02:18:53;9.27;;;5.70;;
17145;SDS011;8688;54.444;18.444;2023-03-25T02:21:51;8.30;;;5.30;;
17145;SDS011;8688;54.444;18.444;2023-03-25T02:24:59;7.33;;;4.43;;
17145;SDS011;8688;54.444;18.444;2023-03-25T02:28:02;9.40;;;4.93;;
17145;SDS011;8688;54.444;18.444;2023-03-25T02:30:47;7.87;;;4.87;;
17145;SDS011;8688;54.444;18.444;2023-03-25T02:33:36;6.37;;;4.57;;
17145;SDS011;8688;54.444;18.444;2023-03-25T02:39:23;9.57;;;5.00;;
17145;SDS011;8688;54.444;18.444;2023-03-25T02:41:57;8.50;;;4.17;;
17145;SDS011;8688;54.444;18.444;2023-03-25T02:44:29;8.07;;;4.63;;
17145;SDS011;8688;54.444;18.444;2023-03-25T02:47:02;10.13;;;4.70;;
17145;SDS011;8688;54.444;18.444;2023-03-25T02:49:32;8.03;;;4.63;;
17145;SDS011;8688;54.444;18.444;2023-03-25T02:52:04;8.87;;;4.63;;
17145;SDS011;8688;54.444;18.444;2023-03-25T02:54:36;9.63;;;4.57;;
17145;SDS011;8688;54.444;18.444;2023-03-25T02:57:06;8.57;;;4.47;;
17145;SDS011;8688;54.444;18.444;2023-03-25T02:59:35;8.47;;;3.93;;
17145;SDS011;8688;54.444;18.444;2023-03-25T03:02:05;9.30;;;4.00;;
17145;SDS011;8688;54.444;18.444;2023-03-25T03:04:46;10.03;;;4.47;;
17145;SDS011;8688;54.444;18.444;2023-03-25T03:07:16;9.53;;;4.50;;
17145;SDS011;8688;54.444;18.444;2023-03-25T03:09:52;8.40;;;3.97;;
17145;SDS011;8688;54.444;18.444;2023-03-25T03:12:43;10.37;;;4.03;;
17145;SDS011;8688;54.444;18.444;2023-03-25T03:15:22;10.30;;;3.93;;
17145;SDS011;8688;54.444;18.444;2023-03-25T03:18:02;7.50;;;4.30;;
17145;SDS011;8688;54.444;18.444;2023-03-25T03:20:40;9.43;;;4.07;;
17145;SDS011;8688;54.444;18.444;2023-03-25T03:23:18;7.30;;;3.87;;
17145;SDS011;8688;54.444;18.444;2023-03-25T03:25:57;7.67;;;3.90;;
17145;SDS011;8688;54.444;18.444;2023-03-25T03:28:31;7.53;;;3.50;;
17145;SDS011;8688;54.444;18.444;2023-03-25T03:31:03;8.10;;;4.20;;
17145;SDS011;8688;54.444;18.444;2023-03-25T03:33:34;6.97;;;3.67;;
17145;SDS011;8688;54.444;18.444;2023-03-25T03:36:06;12.70;;;4.33;;
17145;SDS011;8688;54.444;18.444;2023-03-25T03:38:39;6.03;;;3.80;;
17145;SDS011;8688;54.444;18.444;2023-03-25T03:41:14;9.40;;;4.30;;
17145;SDS011;8688;54.444;18.444;2023-03-25T03:43:47;7.87;;;4.07;;
17145;SDS011;8688;54.444;18.444;2023-03-25T03:46:18;6.10;;;3.87;;
17145;SDS011;8688;54.444;18.444;2023-03-25T03:48:51;8.30;;;4.03;;
17145;SDS011;8688;54.444;18.444;2023-03-25T03:51:22;7.80;;;3.63;;
17145;SDS011;8688;54.444;18.444;2023-03-25T03:53:54;7.93;;;3.67;;
17145;SDS011;8688;54.444;18.444;2023-03-25T03:56:27;7.20;;;4.00;;
17145;SDS011;8688;54.444;18.444;2023-03-25T03:59:01;7.23;;;4.53;;
17145;SDS011;8688;54.444;18.444;2023-03-25T04:01:33;10.00;;;5.50;;
17145;SDS011;8688;54.444;18.444;2023-03-25T04:04:10;10.87;;;5.03;;
17145;SDS011;8688;54.444;18.444;2023-03-25T04:06:43;11.17;;;5.10;;
17145;SDS011;8688;54.444;18.444;2023-03-25T04:09:15;12.97;;;6.03;;
17145;SDS011;8688;54.444;18.444;2023-03-25T04:11:53;10.33;;;4.90;;
17145;SDS011;8688;54.444;18.444;2023-03-25T04:14:25;9.13;;;4.80;;
17145;SDS011;8688;54.444;18.444;2023-03-25T04:16:53;8.83;;;4.57;;
17145;SDS011;8688;54.444;18.444;2023-03-25T04:19:21;6.63;;;4.40;;
17145;SDS011;8688;54.444;18.444;2023-03-25T04:21:49;6.47;;;3.80;;
17145;SDS011;8688;54.444;18.444;2023-03-25T04:24:18;8.73;;;4.10;;
17145;SDS011;8688;54.444;18.444;2023-03-25T04:26:45;7.40;;;3.90;;
17145;SDS011;8688;54.444;18.444;2023-03-25T04:29:15;8.23;;;4.00;;
17145;SDS011;8688;54.444;18.444;2023-03-25T04:31:43;7.50;;;4.43;;
17145;SDS011;8688;54.444;18.444;2023-03-25T04:34:13;9.60;;;4.50;;
17145;SDS011;8688;54.444;18.444;2023-03-25T04:36:41;10.47;;;4.30;;
17145;SDS011;8688;54.444;18.444;2023-03-25T04:39:09;8.33;;;4.63;;
17145;SDS011;8688;54.444;18.444;2023-03-25T04:41:37;8.97;;;4.57;;
17145;SDS011;8688;54.444;18.444;2023-03-25T04:44:04;9.00;;;4.60;;
17145;SDS011;8688;54.444;18.444;2023-03-25T04:46:34;7.70;;;4.47;;
17145;SDS011;8688;54.444;18.444;2023-03-25T04:49:03;8.67;;;4.63;;
17145;SDS011;8688;54.444;18.444;2023-03-25T04:51:38;7.77;;;4.20;;
17145;SDS011;8688;54.444;18.444;2023-03-25T04:54:09;8.27;;;3.80;;
17145;SDS011;8688;54.444;18.444;2023-03-25T04:56:36;6.80;;;4.13;;
17145;SDS011;8688;54.444;18.444;2023-03-25T04:59:05;7.93;;;4.03;;
17145;SDS011;8688;54.444;18.444;2023-03-25T05:01:34;9.80;;;4.37;;
17145;SDS011;8688;54.444;18.444;2023-03-25T05:04:07;8.27;;;4.20;;
17145;SDS011;8688;54.444;18.444;2023-03-25T05:06:37;7.67;;;4.17;;
17145;SDS011;8688;54.444;18.444;2023-03-25T05:09:06;6.07;;;4.30;;
17145;SDS011;8688;54.444;18.444;2023-03-25T05:11:37;7.30;;;3.90;;
17145;SDS011;8688;54.444;18.444;2023-03-25T05:14:06;6.87;;;3.93;;
17145;SDS011;8688;54.444;18.444;2023-03-25T05:16:35;7.13;;;3.77;;
17145;SDS011;8688;54.444;18.444;2023-03-25T05:19:03;10.23;;;4.50;;
17145;SDS011;8688;54.444;18.444;2023-03-25T05:21:32;8.50;;;4.30;;
17145;SDS011;8688;54.444;18.444;2023-03-25T05:24:02;8.03;;;3.97;;
17145;SDS011;8688;54.444;18.444;2023-03-25T05:26:32;7.53;;;4.30;;
17145;SDS011;8688;54.444;18.444;2023-03-25T05:29:00;11.50;;;4.57;;
17145;SDS011;8688;54.444;18.444;2023-03-25T05:31:28;8.93;;;4.33;;
17145;SDS011;8688;54.444;18.444;2023-03-25T05:33:57;8.33;;;4.27;;
17145;SDS011;8688;54.444;18.444;2023-03-25T05:36:24;9.03;;;4.37;;
17145;SDS011;8688;54.444;18.444;2023-03-25T05:38:52;8.77;;;4.43;;
17145;SDS011;8688;54.444;18.444;2023-03-25T05:41:21;9.40;;;4.80;;
17145;SDS011;8688;54.444;18.444;2023-03-25T05:43:57;6.83;;;4.10;;
17145;SDS011;8688;54.444;18.444;2023-03-25T05:46:26;9.80;;;4.30;;
17145;SDS011;8688;54.444;18.444;2023-03-25T05:48:54;9.57;;;4.30;;
17145;SDS011;8688;54.444;18.444;2023-03-25T05:51:25;9.10;;;4.53;;
17145;SDS011;8688;54.444;18.444;2023-03-25T05:53:53;7.27;;;4.00;;
17145;SDS011;8688;54.444;18.444;2023-03-25T05:56:21;8.57;;;4.00;;
17145;SDS011;8688;54.444;18.444;2023-03-25T05:58:50;10.63;;;4.43;;
17145;SDS011;8688;54.444;18.444;2023-03-25T06:01:18;6.77;;;4.13;;
17145;SDS011;8688;54.444;18.444;2023-03-25T06:03:47;8.27;;;4.17;;
17145;SDS011;8688;54.444;18.444;2023-03-25T06:06:16;11.33;;;4.57;;
17145;SDS011;8688;54.444;18.444;2023-03-25T06:08:50;8.07;;;4.07;;
17145;SDS011;8688;54.444;18.444;2023-03-25T06:11:18;7.73;;;4.20;;
17145;SDS011;8688;54.444;18.444;2023-03-25T06:13:47;7.40;;;3.70;;
17145;SDS011;8688;54.444;18.444;2023-03-25T06:16:16;6.33;;;3.70;;
17145;SDS011;8688;54.444;18.444;2023-03-25T06:18:45;7.33;;;4.20;;
17145;SDS011;8688;54.444;18.444;2023-03-25T06:21:21;10.33;;;4.73;;
17145;SDS011;8688;54.444;18.444;2023-03-25T06:23:50;7.30;;;4.07;;
17145;SDS011;8688;54.444;18.444;2023-03-25T06:26:19;7.60;;;3.73;;
17145;SDS011;8688;54.444;18.444;2023-03-25T06:28:48;7.33;;;3.83;;
17145;SDS011;8688;54.444;18.444;2023-03-25T06:31:17;6.90;;;3.67;;
17145;SDS011;8688;54.444;18.444;2023-03-25T06:33:47;7.03;;;3.90;;
17145;SDS011;8688;54.444;18.444;2023-03-25T06:36:16;9.70;;;4.00;;
17145;SDS011;8688;54.444;18.444;2023-03-25T06:38:46;9.30;;;3.70;;
17145;SDS011;8688;54.444;18.444;2023-03-25T06:41:15;7.37;;;4.03;;
17145;SDS011;8688;54.444;18.444;2023-03-25T06:43:44;9.13;;;3.77;;
17145;SDS011;8688;54.444;18.444;2023-03-25T06:46:12;7.37;;;3.77;;
17145;SDS011;8688;54.444;18.444;2023-03-25T06:48:40;7.10;;;3.90;;
17145;SDS011;8688;54.444;18.444;2023-03-25T06:51:07;6.57;;;3.90;;
17145;SDS011;8688;54.444;18.444;2023-03-25T06:53:35;9.83;;;3.50;;
17145;SDS011;8688;54.444;18.444;2023-03-25T06:56:04;9.63;;;4.20;;
17145;SDS011;8688;54.444;18.444;2023-03-25T06:58:32;8.80;;;3.37;;
17145;SDS011;8688;54.444;18.444;2023-03-25T07:01:00;8.67;;;4.00;;
17145;SDS011;8688;54.444;18.444;2023-03-25T07:03:31;8.60;;;3.60;;
17145;SDS011;8688;54.444;18.444;2023-03-25T07:05:58;6.40;;;3.43;;
17145;SDS011;8688;54.444;18.444;2023-03-25T07:08:26;6.83;;;3.47;;
17145;SDS011;8688;54.444;18.444;2023-03-25T07:10:58;7.63;;;3.40;;
17145;SDS011;8688;54.444;18.444;2023-03-25T07:13:29;7.83;;;3.60;;
17145;SDS011;8688;54.444;18.444;2023-03-25T07:15:56;5.23;;;3.43;;
17145;SDS011;8688;54.444;18.444;2023-03-25T07:18:24;6.90;;;3.33;;
17145;SDS011;8688;54.444;18.444;2023-03-25T07:20:52;6.23;;;3.80;;
17145;SDS011;8688;54.444;18.444;2023-03-25T07:23:20;7.97;;;3.97;;
17145;SDS011;8688;54.444;18.444;2023-03-25T07:25:48;5.85;;;3.35;;
17145;SDS011;8688;54.444;18.444;2023-03-25T07:28:15;9.18;;;3.80;;
17145;SDS011;8688;54.444;18.444;2023-03-25T07:30:44;7.60;;;3.23;;
17145;SDS011;8688;54.444;18.444;2023-03-25T07:33:12;8.55;;;3.53;;
17145;SDS011;8688;54.444;18.444;2023-03-25T07:35:39;5.73;;;3.13;;
17145;SDS011;8688;54.444;18.444;2023-03-25T07:38:07;5.68;;;3.38;;
17145;SDS011;8688;54.444;18.444;2023-03-25T07:40:35;5.88;;;3.95;;
17145;SDS011;8688;54.444;18.444;2023-03-25T07:43:03;8.85;;;3.60;;
17145;SDS011;8688;54.444;18.444;2023-03-25T07:45:31;7.38;;;3.53;;
17145;SDS011;8688;54.444;18.444;2023-03-25T07:48:00;8.80;;;3.80;;
17145;SDS011;8688;54.444;18.444;2023-03-25T07:50:28;9.15;;;3.53;;
17145;SDS011;8688;54.444;18.444;2023-03-25T07:52:55;8.40;;;3.42;;
17145;SDS011;8688;54.444;18.444;2023-03-25T07:55:23;9.50;;;3.80;;
17145;SDS011;8688;54.444;18.444;2023-03-25T07:57:50;8.88;;;3.70;;
17145;SDS011;8688;54.444;18.444;2023-03-25T08:00:18;8.00;;;3.80;;
17145;SDS011;8688;54.444;18.444;2023-03-25T08:02:46;8.40;;;3.92;;
17145;SDS011;8688;54.444;18.444;2023-03-25T08:05:15;6.93;;;3.67;;
17145;SDS011;8688;54.444;18.444;2023-03-25T08:07:45;7.40;;;3.65;;
17145;SDS011;8688;54.444;18.444;2023-03-25T08:10:13;7.03;;;3.80;;
17145;SDS011;8688;54.444;18.444;2023-03-25T08:12:41;6.03;;;3.33;;
17145;SDS011;8688;54.444;18.444;2023-03-25T08:15:09;5.28;;;3.25;;
17145;SDS011;8688;54.444;18.444;2023-03-25T08:17:37;8.68;;;3.30;;
17145;SDS011;8688;54.444;18.444;2023-03-25T08:20:05;9.88;;;3.53;;
17145;SDS011;8688;54.444;18.444;2023-03-25T08:22:37;6.25;;;3.53;;
17145;SDS011;8688;54.444;18.444;2023-03-25T08:25:05;6.15;;;2.97;;
17145;SDS011;8688;54.444;18.444;2023-03-25T08:27:33;6.10;;;3.40;;
17145;SDS011;8688;54.444;18.444;2023-03-25T08:30:00;6.40;;;2.97;;
17145;SDS011;8688;54.444;18.444;2023-03-25T08:32:29;8.05;;;3.28;;
17145;SDS011;8688;54.444;18.444;2023-03-25T08:34:57;6.70;;;2.90;;
17145;SDS011;8688;54.444;18.444;2023-03-25T08:37:24;7.70;;;3.08;;
17145;SDS011;8688;54.444;18.444;2023-03-25T08:39:53;8.43;;;2.97;;
17145;SDS011;8688;54.444;18.444;2023-03-25T08:42:22;8.10;;;3.05;;
17145;SDS011;8688;54.444;18.444;2023-03-25T08:44:49;5.60;;;3.22;;
17145;SDS011;8688;54.444;18.444;2023-03-25T08:47:17;5.13;;;2.53;;
17145;SDS011;8688;54.444;18.444;2023-03-25T08:49:44;6.63;;;2.58;;
17145;SDS011;8688;54.444;18.444;2023-03-25T08:52:12;8.25;;;2.92;;
17145;SDS011;8688;54.444;18.444;2023-03-25T08:54:40;11.35;;;3.65;;
17145;SDS011;8688;54.444;18.444;2023-03-25T08:57:09;7.55;;;3.10;;
17145;SDS011;8688;54.444;18.444;2023-03-25T08:59:36;5.75;;;2.58;;
17145;SDS011;8688;54.444;18.444;2023-03-25T09:02:04;8.65;;;2.67;;
17145;SDS011;8688;54.444;18.444;2023-03-25T09:04:31;5.68;;;2.85;;
17145;SDS011;8688;54.444;18.444;2023-03-25T09:06:59;7.57;;;2.50;;
17145;SDS011;8688;54.444;18.444;2023-03-25T09:09:26;10.52;;;2.40;;
17145;SDS011;8688;54.444;18.444;2023-03-25T09:11:54;8.48;;;2.50;;
17145;SDS011;8688;54.444;18.444;2023-03-25T09:14:26;6.88;;;2.78;;
17145;SDS011;8688;54.444;18.444;2023-03-25T09:16:54;7.35;;;3.17;;
17145;SDS011;8688;54.444;18.444;2023-03-25T09:19:21;8.13;;;3.15;;
17145;SDS011;8688;54.444;18.444;2023-03-25T09:21:50;7.18;;;2.72;;
17145;SDS011;8688;54.444;18.444;2023-03-25T09:24:17;10.45;;;3.58;;
17145;SDS011;8688;54.444;18.444;2023-03-25T09:26:48;6.65;;;3.33;;
17145;SDS011;8688;54.444;18.444;2023-03-25T09:29:16;8.65;;;2.60;;
17145;SDS011;8688;54.444;18.444;2023-03-25T09:31:45;7.75;;;2.65;;
17145;SDS011;8688;54.444;18.444;2023-03-25T09:34:12;9.35;;;2.67;;
17145;SDS011;8688;54.444;18.444;2023-03-25T09:36:40;6.97;;;2.67;;
17145;SDS011;8688;54.444;18.444;2023-03-25T09:39:09;6.25;;;2.33;;
17145;SDS011;8688;54.444;18.444;2023-03-25T09:41:40;6.18;;;2.47;;
17145;SDS011;8688;54.444;18.444;2023-03-25T09:44:21;7.65;;;3.13;;
17145;SDS011;8688;54.444;18.444;2023-03-25T09:46:53;6.80;;;3.08;;
17145;SDS011;8688;54.444;18.444;2023-03-25T09:49:25;7.15;;;2.97;;
17145;SDS011;8688;54.444;18.444;2023-03-25T09:52:02;4.75;;;3.13;;
17145;SDS011;8688;54.444;18.444;2023-03-25T09:54:30;8.10;;;3.22;;
17145;SDS011;8688;54.444;18.444;2023-03-25T09:57:01;5.05;;;3.53;;
17145;SDS011;8688;54.444;18.444;2023-03-25T09:59:35;7.45;;;3.67;;
17145;SDS011;8688;54.444;18.444;2023-03-25T10:02:11;8.00;;;4.00;;
17145;SDS011;8688;54.444;18.444;2023-03-25T10:04:50;7.15;;;4.07;;
17145;SDS011;8688;54.444;18.444;2023-03-25T10:07:39;7.35;;;3.88;;
17145;SDS011;8688;54.444;18.444;2023-03-25T10:10:18;6.55;;;4.18;;
17145;SDS011;8688;54.444;18.444;2023-03-25T10:12:54;6.63;;;4.07;;
17145;SDS011;8688;54.444;18.444;2023-03-25T10:15:29;7.20;;;3.90;;
17145;SDS011;8688;54.444;18.444;2023-03-25T10:18:07;6.80;;;2.90;;
17145;SDS011;8688;54.444;18.444;2023-03-25T10:20:59;8.98;;;3.47;;
17145;SDS011;8688;54.444;18.444;2023-03-25T10:23:33;7.15;;;3.28;;
17145;SDS011;8688;54.444;18.444;2023-03-25T10:26:04;6.03;;;3.28;;
17145;SDS011;8688;54.444;18.444;2023-03-25T10:28:37;7.25;;;3.10;;
17145;SDS011;8688;54.444;18.444;2023-03-25T10:31:09;6.57;;;3.15;;
17145;SDS011;8688;54.444;18.444;2023-03-25T10:33:43;6.22;;;2.67;;
17145;SDS011;8688;54.444;18.444;2023-03-25T10:36:16;6.65;;;2.90;;
17145;SDS011;8688;54.444;18.444;2023-03-25T10:38:46;6.43;;;3.35;;
17145;SDS011;8688;54.444;18.444;2023-03-25T10:41:21;6.75;;;3.08;;
17145;SDS011;8688;54.444;18.444;2023-03-25T10:43:52;5.72;;;2.67;;
17145;SDS011;8688;54.444;18.444;2023-03-25T10:46:24;7.03;;;2.60;;
17145;SDS011;8688;54.444;18.444;2023-03-25T10:48:57;5.30;;;2.60;;
17145;SDS011;8688;54.444;18.444;2023-03-25T10:51:25;6.18;;;2.50;;
17145;SDS011;8688;54.444;18.444;2023-03-25T10:53:54;4.38;;;2.88;;
17145;SDS011;8688;54.444;18.444;2023-03-25T10:56:24;6.47;;;3.15;;
17145;SDS011;8688;54.444;18.444;2023-03-25T10:58:55;7.40;;;3.20;;
17145;SDS011;8688;54.444;18.444;2023-03-25T11:01:28;5.72;;;2.60;;
17145;SDS011;8688;54.444;18.444;2023-03-25T11:04:01;3.63;;;2.50;;
17145;SDS011;8688;54.444;18.444;2023-03-25T11:06:32;4.97;;;1.85;;
17145;SDS011;8688;54.444;18.444;2023-03-25T11:09:11;4.78;;;2.55;;
17145;SDS011;8688;54.444;18.444;2023-03-25T11:11:42;6.90;;;2.42;;
17145;SDS011;8688;54.444;18.444;2023-03-25T11:14:10;6.53;;;2.38;;
17145;SDS011;8688;54.444;18.444;2023-03-25T11:16:41;5.40;;;2.40;;
17145;SDS011;8688;54.444;18.444;2023-03-25T11:19:17;6.80;;;2.90;;
17145;SDS011;8688;54.444;18.444;2023-03-25T11:21:52;9.82;;;2.60;;
17145;SDS011;8688;54.444;18.444;2023-03-25T11:24:22;3.92;;;2.40;;
17145;SDS011;8688;54.444;18.444;2023-03-25T11:27:01;4.50;;;2.42;;
17145;SDS011;8688;54.444;18.444;2023-03-25T11:29:28;6.95;;;2.30;;
17145;SDS011;8688;54.444;18.444;2023-03-25T11:32:03;4.38;;;2.28;;
17145;SDS011;8688;54.444;18.444;2023-03-25T11:34:34;4.13;;;2.08;;
17145;SDS011;8688;54.444;18.444;2023-03-25T11:37:11;3.60;;;2.00;;
17145;SDS011;8688;54.444;18.444;2023-03-25T11:39:42;4.95;;;2.10;;
17145;SDS011;8688;54.444;18.444;2023-03-25T11:42:20;3.50;;;1.92;;
17145;SDS011;8688;54.444;18.444;2023-03-25T11:44:54;4.88;;;1.95;;
17145;SDS011;8688;54.444;18.444;2023-03-25T11:47:24;3.85;;;2.50;;
17145;SDS011;8688;54.444;18.444;2023-03-25T11:49:57;8.70;;;3.50;;
17145;SDS011;8688;54.444;18.444;2023-03-25T11:52:26;4.15;;;2.10;;
17145;SDS011;8688;54.444;18.444;2023-03-25T11:54:58;5.00;;;2.40;;
17145;SDS011;8688;54.444;18.444;2023-03-25T11:57:29;4.65;;;2.45;;
17145;SDS011;8688;54.444;18.444;2023-03-25T12:00:03;7.80;;;2.63;;
17145;SDS011;8688;54.444;18.444;2023-03-25T12:02:37;4.38;;;2.22;;
17145;SDS011;8688;54.444;18.444;2023-03-25T12:05:11;3.47;;;2.25;;
17145;SDS011;8688;54.444;18.444;2023-03-25T12:07:40;5.63;;;2.42;;
17145;SDS011;8688;54.444;18.444;2023-03-25T12:10:14;9.32;;;2.10;;
17145;SDS011;8688;54.444;18.444;2023-03-25T12:12:47;4.53;;;2.05;;
17145;SDS011;8688;54.444;18.444;2023-03-25T12:15:23;4.20;;;1.95;;
17145;SDS011;8688;54.444;18.444;2023-03-25T12:18:02;4.47;;;1.90;;
17145;SDS011;8688;54.444;18.444;2023-03-25T12:20:44;3.63;;;2.17;;
17145;SDS011;8688;54.444;18.444;2023-03-25T12:23:25;2.72;;;1.70;;
17145;SDS011;8688;54.444;18.444;2023-03-25T12:26:03;3.95;;;1.83;;
17145;SDS011;8688;54.444;18.444;2023-03-25T12:28:50;6.95;;;1.85;;
17145;SDS011;8688;54.444;18.444;2023-03-25T12:31:45;3.28;;;2.00;;
17145;SDS011;8688;54.444;18.444;2023-03-25T12:34:27;4.72;;;2.40;;
17145;SDS011;8688;54.444;18.444;2023-03-25T12:37:06;5.30;;;2.00;;
17145;SDS011;8688;54.444;18.444;2023-03-25T12:39:48;5.75;;;2.17;;
17145;SDS011;8688;54.444;18.444;2023-03-25T12:42:29;6.10;;;2.03;;
17145;SDS011;8688;54.444;18.444;2023-03-25T12:45:20;5.32;;;1.90;;
17145;SDS011;8688;54.444;18.444;2023-03-25T12:47:56;3.65;;;2.03;;
17145;SDS011;8688;54.444;18.444;2023-03-25T12:50:42;5.28;;;2.15;;
17145;SDS011;8688;54.444;18.444;2023-03-25T12:53:31;6.22;;;2.10;;
17145;SDS011;8688;54.444;18.444;2023-03-25T12:56:12;4.55;;;1.92;;
17145;SDS011;8688;54.444;18.444;2023-03-25T12:58:57;4.25;;;2.00;;
17145;SDS011;8688;54.444;18.444;2023-03-25T13:01:36;3.80;;;1.92;;
17145;SDS011;8688;54.444;18.444;2023-03-25T13:04:16;4.15;;;2.10;;
17145;SDS011;8688;54.444;18.444;2023-03-25T13:06:57;3.40;;;2.00;;
17145;SDS011;8688;54.444;18.444;2023-03-25T13:09:30;5.75;;;2.30;;
17145;SDS011;8688;54.444;18.444;2023-03-25T13:12:03;6.38;;;2.42;;
17145;SDS011;8688;54.444;18.444;2023-03-25T13:14:38;6.25;;;2.25;;
17145;SDS011;8688;54.444;18.444;2023-03-25T13:17:11;4.13;;;2.20;;
17145;SDS011;8688;54.444;18.444;2023-03-25T13:19:47;5.22;;;2.85;;
17145;SDS011;8688;54.444;18.444;2023-03-25T13:22:26;7.13;;;2.97;;
17145;SDS011;8688;54.444;18.444;2023-03-25T13:25:00;6.22;;;2.47;;
17145;SDS011;8688;54.444;18.444;2023-03-25T13:27:31;5.55;;;2.55;;
17145;SDS011;8688;54.444;18.444;2023-03-25T13:30:02;4.30;;;2.13;;
17145;SDS011;8688;54.444;18.444;2023-03-25T13:32:33;3.67;;;2.38;;
17145;SDS011;8688;54.444;18.444;2023-03-25T13:35:05;5.40;;;2.25;;
17145;SDS011;8688;54.444;18.444;2023-03-25T13:37:39;3.63;;;2.00;;
17145;SDS011;8688;54.444;18.444;2023-03-25T13:40:19;3.78;;;2.05;;
17145;SDS011;8688;54.444;18.444;2023-03-25T13:42:52;2.53;;;1.17;;
17145;SDS011;8688;54.444;18.444;2023-03-25T13:45:24;1.92;;;0.95;;
17145;SDS011;8688;54.444;18.444;2023-03-25T13:47:59;4.30;;;1.42;;
17145;SDS011;8688;54.444;18.444;2023-03-25T13:50:33;6.07;;;2.47;;
17145;SDS011;8688;54.444;18.444;2023-03-25T13:53:02;4.72;;;2.15;;
17145;SDS011;8688;54.444;18.444;2023-03-25T13:55:35;6.13;;;3.00;;
17145;SDS011;8688;54.444;18.444;2023-03-25T13:58:16;9.48;;;3.75;;
17145;SDS011;8688;54.444;18.444;2023-03-25T14:01:00;10.07;;;3.67;;
17145;SDS011;8688;54.444;18.444;2023-03-25T14:06:52;6.07;;;1.80;;
17145;SDS011;8688;54.444;18.444;2023-03-25T14:12:30;1.90;;;0.90;;
17145;SDS011;8688;54.444;18.444;2023-03-25T14:15:01;3.13;;;1.30;;
17145;SDS011;8688;54.444;18.444;2023-03-25T14:17:31;3.22;;;1.10;;
17145;SDS011;8688;54.444;18.444;2023-03-25T14:20:02;1.63;;;1.00;;
17145;SDS011;8688;54.444;18.444;2023-03-25T14:22:36;3.60;;;1.30;;
17145;SDS011;8688;54.444;18.444;2023-03-25T14:25:12;2.55;;;1.27;;
17145;SDS011;8688;54.444;18.444;2023-03-25T14:27:48;4.38;;;1.75;;
17145;SDS011;8688;54.444;18.444;2023-03-25T14:30:18;5.47;;;2.05;;
17145;SDS011;8688;54.444;18.444;2023-03-25T14:32:47;6.18;;;2.38;;
17145;SDS011;8688;54.444;18.444;2023-03-25T14:41:19;9.52;;;4.63;;
17145;SDS011;8688;54.444;18.444;2023-03-25T14:44:24;13.77;;;6.07;;
17145;SDS011;8688;54.444;18.444;2023-03-25T14:50:00;6.60;;;2.67;;
17145;SDS011;8688;54.444;18.444;2023-03-25T14:52:31;4.97;;;2.35;;
17145;SDS011;8688;54.444;18.444;2023-03-25T14:55:05;5.30;;;2.33;;
17145;SDS011;8688;54.444;18.444;2023-03-25T14:57:40;4.90;;;2.63;;
17145;SDS011;8688;54.444;18.444;2023-03-25T15:00:17;5.30;;;2.72;;
17145;SDS011;8688;54.444;18.444;2023-03-25T15:02:49;4.88;;;2.75;;
17145;SDS011;8688;54.444;18.444;2023-03-25T15:05:19;8.13;;;3.42;;
17145;SDS011;8688;54.444;18.444;2023-03-25T15:07:51;5.43;;;2.90;;
17145;SDS011;8688;54.444;18.444;2023-03-25T15:10:22;5.68;;;2.75;;
17145;SDS011;8688;54.444;18.444;2023-03-25T15:12:53;5.32;;;2.58;;
17145;SDS011;8688;54.444;18.444;2023-03-25T15:15:32;7.45;;;3.17;;
17145;SDS011;8688;54.444;18.444;2023-03-25T15:21:19;4.85;;;2.33;;
17145;SDS011;8688;54.444;18.444;2023-03-25T15:23:50;8.20;;;4.13;;
17145;SDS011;8688;54.444;18.444;2023-03-25T15:26:25;5.40;;;2.20;;
17145;SDS011;8688;54.444;18.444;2023-03-25T15:31:53;4.28;;;2.50;;
17145;SDS011;8688;54.444;18.444;2023-03-25T15:34:36;4.70;;;2.65;;
17145;SDS011;8688;54.444;18.444;2023-03-25T15:37:23;6.78;;;3.10;;
17145;SDS011;8688;54.444;18.444;2023-03-25T15:40:16;5.90;;;3.38;;